createdAt,value
2023-03-24T00:01:27.985Z,91616.94
2023-03-24T00:03:56.363Z,91609.81
2023-03-24T00:06:26.962Z,91609.96
2023-03-24T00:08:55.515Z,91612.16
2023-03-24T00:11:25.692Z,91609.48
2023-03-24T00:13:54.011Z,91606.22
2023-03-24T00:16:22.378Z,91605.11
2023-03-24T00:18:54.379Z,91607.90
2023-03-24T00:21:25.073Z,91602.25
2023-03-24T00:23:55.975Z,91601.43
2023-03-24T00:26:25.877Z,91601.41
2023-03-24T00:28:55.896Z,91600.54
2023-03-24T00:31:25.634Z,91600.29
2023-03-24T00:33:54.604Z,91601.89
2023-03-24T00:36:25.975Z,91599.39
2023-03-24T00:38:56.830Z,91596.44
2023-03-24T00:41:27.403Z,91597.96
2023-03-24T00:43:59.158Z,91597.67
2023-03-24T00:46:28.085Z,91599.08
2023-03-24T00:49:06.732Z,91602.83
2023-03-24T00:51:38.020Z,91605.15
2023-03-24T00:54:09.472Z,91603.68
2023-03-24T00:56:40.978Z,91604.94
2023-03-24T00:59:10.945Z,91607.30
2023-03-24T01:01:41.239Z,91604.84
2023-03-24T01:04:10.779Z,91602.48
2023-03-24T01:06:41.282Z,91599.40
2023-03-24T01:09:10.839Z,91600.40
2023-03-24T01:11:41.632Z,91602.32
2023-03-24T01:14:11.899Z,91599.70
2023-03-24T01:16:41.048Z,91598.06
2023-03-24T01:19:09.614Z,91598.21
2023-03-24T01:21:39.235Z,91597.54
2023-03-24T01:24:08.477Z,91598.30
2023-03-24T01:26:36.929Z,91597.71
2023-03-24T01:29:06.248Z,91593.81
2023-03-24T01:31:35.055Z,91593.64
2023-03-24T01:34:03.878Z,91588.45
2023-03-24T01:36:32.379Z,91593.30
2023-03-24T01:39:01.565Z,91592.55
2023-03-24T01:41:35.578Z,91590.87
2023-03-24T01:44:23.835Z,91595.16
2023-03-24T01:46:53.945Z,91590.79
2023-03-24T01:55:33.830Z,91590.16
2023-03-24T01:58:03.785Z,91592.44
2023-03-24T02:00:46.575Z,91587.77
2023-03-24T02:03:40.432Z,91588.96
2023-03-24T02:06:09.815Z,91585.99
2023-03-24T02:08:46.852Z,91580.80
2023-03-24T02:11:15.206Z,91583.59
2023-03-24T02:13:53.568Z,91588.95
2023-03-24T02:16:38.654Z,91594.09
2023-03-24T02:19:38.333Z,91598.26
2023-03-24T02:22:22.696Z,91594.71
2023-03-24T02:25:28.359Z,91591.52
2023-03-24T02:28:09.721Z,91593.55
2023-03-24T02:31:09.569Z,91595.28
2023-03-24T02:33:54.499Z,91589.48
2023-03-24T02:36:54.838Z,91588.19
2023-03-24T02:39:56.375Z,91589.09
2023-03-24T02:42:50.480Z,91590.30
2023-03-24T02:45:32.540Z,91591.79
2023-03-24T02:48:08.527Z,91594.72
2023-03-24T02:51:00.821Z,91598.71
2023-03-24T02:53:41.315Z,91598.91
2023-03-24T02:56:36.723Z,91598.84
2023-03-24T02:59:22.311Z,91600.92
2023-03-24T03:01:59.154Z,91603.11
2023-03-24T03:04:54.201Z,91605.32
2023-03-24T03:07:26.960Z,91608.96
2023-03-24T03:10:02.808Z,91605.70
2023-03-24T03:12:36.297Z,91606.92
2023-03-24T03:15:11.007Z,91604.91
2023-03-24T03:17:43.398Z,91606.09
2023-03-24T03:20:20.815Z,91608.52
2023-03-24T03:22:54.430Z,91609.92
2023-03-24T03:25:29.094Z,91612.00
2023-03-24T03:28:02.501Z,91612.17
2023-03-24T03:30:56.025Z,91609.31
2023-03-24T03:33:30.666Z,91609.77
2023-03-24T03:36:17.247Z,91611.15
2023-03-24T03:39:07.391Z,91611.11
2023-03-24T03:41:37.334Z,91613.85
2023-03-24T03:44:05.794Z,91613.34
2023-03-24T03:46:36.524Z,91610.10
2023-03-24T03:49:07.961Z,91610.07
2023-03-24T03:51:36.875Z,91609.04
2023-03-24T03:54:09.174Z,91608.77
2023-03-24T03:56:38.581Z,91613.55
2023-03-24T03:59:35.533Z,91616.67
2023-03-24T04:02:29.068Z,91617.95
2023-03-24T04:05:15.844Z,91616.89
2023-03-24T04:08:14.967Z,91614.96
2023-03-24T04:11:07.386Z,91613.09
2023-03-24T04:14:02.937Z,91612.54
2023-03-24T04:16:47.762Z,91613.50
2023-03-24T04:19:30.559Z,91613.80
2023-03-24T04:22:24.326Z,91612.14
2023-03-24T04:25:16.420Z,91613.42
2023-03-24T04:28:20.127Z,91615.67
2023-03-24T04:31:01.433Z,91614.40
2023-03-24T04:33:39.245Z,91619.91
2023-03-24T04:36:42.286Z,91621.91
2023-03-24T04:39:39.099Z,91625.81
2023-03-24T04:42:17.897Z,91629.33
2023-03-24T04:44:46.844Z,91629.05
2023-03-24T04:47:54.002Z,91628.40
2023-03-24T04:50:43.646Z,91635.48
2023-03-24T04:53:18.245Z,91639.92
2023-03-24T04:55:49.837Z,91637.20
2023-03-24T04:58:24.020Z,91636.68
2023-03-24T05:00:52.604Z,91641.73
2023-03-24T05:03:20.742Z,91640.54
2023-03-24T05:05:50.947Z,91639.77
2023-03-24T05:08:20.589Z,91639.68
2023-03-24T05:10:49.570Z,91644.48
2023-03-24T05:13:18.237Z,91648.92
2023-03-24T05:15:49.999Z,91651.14
2023-03-24T05:18:41.525Z,91655.76
2023-03-24T05:21:09.884Z,91652.95
2023-03-24T05:23:38.755Z,91653.25
2023-03-24T05:26:07.390Z,91655.99
2023-03-24T05:28:41.480Z,91654.70
2023-03-24T05:31:10.088Z,91650.48
2023-03-24T05:33:56.714Z,91648.21
2023-03-24T05:36:25.553Z,91650.93
2023-03-24T05:38:56.055Z,91648.56
2023-03-24T05:41:25.971Z,91645.30
2023-03-24T05:43:54.182Z,91644.61
2023-03-24T05:46:25.239Z,91646.96
2023-03-24T05:48:54.744Z,91642.50
2023-03-24T05:51:24.943Z,91643.95
2023-03-24T05:54:00.410Z,91650.84
2023-03-24T05:56:35.751Z,91651.36
2023-03-24T05:59:11.751Z,91651.36
2023-03-24T06:02:06.326Z,91647.83
2023-03-24T06:05:04.136Z,91649.60
2023-03-24T06:07:32.416Z,91652.88
2023-03-24T06:10:03.726Z,91653.67
2023-03-24T06:12:41.691Z,91656.77
2023-03-24T06:15:11.299Z,91661.33
2023-03-24T06:17:39.653Z,91662.48
2023-03-24T06:20:18.846Z,91657.27
2023-03-24T06:23:07.054Z,91659.86
2023-03-24T06:25:45.525Z,91660.29
2023-03-24T06:28:20.851Z,91663.66
2023-03-24T06:30:49.791Z,91661.84
2023-03-24T06:33:25.922Z,91655.27
2023-03-24T06:35:55.075Z,91654.88
2023-03-24T06:38:23.461Z,91653.48
2023-03-24T06:40:52.116Z,91654.89
2023-03-24T06:43:20.550Z,91656.04
2023-03-24T06:45:49.017Z,91651.28
2023-03-24T06:48:23.505Z,91650.13
2023-03-24T06:50:53.401Z,91647.98
2023-03-24T06:53:22.716Z,91650.11
2023-03-24T06:55:51.365Z,91647.18
2023-03-24T06:58:20.515Z,91650.31
2023-03-24T07:01:07.223Z,91647.49
2023-03-24T07:03:45.011Z,91645.34
2023-03-24T07:06:40.185Z,91646.69
2023-03-24T07:09:15.185Z,91646.79
2023-03-24T07:11:43.462Z,91642.86
2023-03-24T07:14:11.735Z,91647.97
2023-03-24T07:16:40.505Z,91649.18
2023-03-24T07:19:41.612Z,91646.33
2023-03-24T07:22:28.485Z,91645.92
2023-03-24T07:25:20.061Z,91645.49
2023-03-24T07:27:57.967Z,91647.42
2023-03-24T07:30:37.252Z,91642.46
2023-03-24T07:33:10.996Z,91641.15
2023-03-24T07:35:41.165Z,91637.48
2023-03-24T07:38:10.856Z,91635.89
2023-03-24T07:40:39.334Z,91637.50
2023-03-24T07:43:07.681Z,91641.99
2023-03-24T07:45:58.943Z,91638.03
2023-03-24T07:48:29.968Z,91638.59
2023-03-24T07:50:58.214Z,91635.41
2023-03-24T07:53:45.850Z,91634.54
2023-03-24T07:56:16.007Z,91634.63
2023-03-24T07:58:51.808Z,91630.13
2023-03-24T08:01:29.095Z,91632.52
2023-03-24T08:04:04.843Z,91631.48
2023-03-24T08:06:49.132Z,91633.89
2023-03-24T08:09:17.370Z,91626.83
2023-03-24T08:11:45.744Z,91624.30
2023-03-24T08:14:14.178Z,91621.79
2023-03-24T08:16:43.125Z,91624.13
2023-03-24T08:19:11.896Z,91623.70
2023-03-24T08:21:40.202Z,91617.98
2023-03-24T08:24:08.466Z,91616.28
2023-03-24T08:26:36.729Z,91612.45
2023-03-24T08:29:04.917Z,91612.51
2023-03-24T08:31:36.725Z,91611.48
2023-03-24T08:34:11.759Z,91610.02
2023-03-24T08:36:41.532Z,91609.80
2023-03-24T08:39:09.917Z,91602.45
2023-03-24T08:41:38.217Z,91600.79
2023-03-24T08:44:07.717Z,91600.93
2023-03-24T08:46:36.371Z,91595.65
2023-03-24T08:49:04.525Z,91589.46
2023-03-24T08:51:33.313Z,91587.88
2023-03-24T08:54:01.738Z,91589.07
2023-03-24T08:56:30.471Z,91585.73
2023-03-24T08:58:59.363Z,91588.98
2023-03-24T09:01:28.608Z,91585.17
2023-03-24T09:03:57.721Z,91584.27
2023-03-24T09:06:27.479Z,91582.41
2023-03-24T09:08:55.894Z,91580.10
2023-03-24T09:11:24.709Z,91580.34
2023-03-24T09:13:53.124Z,91584.67
2023-03-24T09:16:23.470Z,91585.64
2023-03-24T09:18:51.845Z,91585.77
2023-03-24T09:21:20.055Z,91584.43
2023-03-24T09:23:48.238Z,91586.32
2023-03-24T09:26:16.361Z,91583.98
2023-03-24T09:28:44.613Z,91580.52
2023-03-24T09:31:12.918Z,91577.56
2023-03-24T09:33:41.380Z,91572.13
2023-03-24T09:36:11.165Z,91571.20
2023-03-24T09:38:39.362Z,91574.56
2023-03-24T09:41:18.656Z,91569.91
2023-03-24T09:43:57.246Z,91568.40
2023-03-24T09:46:41.639Z,91563.43
2023-03-24T09:49:16.751Z,91563.73
2023-03-24T09:51:47.123Z,91564.94
2023-03-24T09:54:27.399Z,91561.52
2023-03-24T09:56:57.558Z,91565.06
2023-03-24T09:59:28.782Z,91558.98
2023-03-24T10:01:58.251Z,91557.55
2023-03-24T10:04:28.771Z,91557.35
2023-03-24T10:07:28.316Z,91557.12
2023-03-24T10:10:01.019Z,91552.36
2023-03-24T10:12:37.039Z,91552.92
2023-03-24T10:15:30.989Z,91553.73
2023-03-24T10:18:17.133Z,91555.27
2023-03-24T10:20:56.979Z,91549.52
2023-03-24T10:23:31.156Z,91549.11
2023-03-24T10:26:05.311Z,91546.23
2023-03-24T10:29:22.228Z,91544.05
2023-03-24T10:32:22.633Z,91540.63
2023-03-24T10:35:00.721Z,91542.34
2023-03-24T10:37:31.519Z,91541.40
2023-03-24T10:40:00.832Z,91538.89
2023-03-24T10:42:33.153Z,91536.41
2023-03-24T10:45:03.118Z,91532.80
2023-03-24T10:47:33.223Z,91531.86
2023-03-24T10:50:11.853Z,91528.25
2023-03-24T10:52:46.585Z,91526.59
2023-03-24T10:55:21.291Z,91527.66
2023-03-24T10:57:53.823Z,91523.73
2023-03-24T11:00:32.661Z,91521.17
2023-03-24T11:03:07.088Z,91516.98
2023-03-24T11:05:38.997Z,91514.52
2023-03-24T11:08:28.823Z,91513.86
2023-03-24T11:10:57.160Z,91510.55
2023-03-24T11:13:29.788Z,91510.49
2023-03-24T11:16:17.684Z,91502.33
2023-03-24T11:18:57.084Z,91501.46
2023-03-24T11:21:28.290Z,91497.31
2023-03-24T11:24:01.830Z,91491.19
2023-03-24T11:26:38.736Z,91488.92
2023-03-24T11:29:22.050Z,91485.71
2023-03-24T11:31:54.744Z,91488.70
2023-03-24T11:34:39.064Z,91488.23
2023-03-24T11:37:08.480Z,91487.90
2023-03-24T11:39:37.040Z,91482.77
2023-03-24T11:42:17.417Z,91483.13
2023-03-24T11:44:47.699Z,91473.13
2023-03-24T11:47:33.582Z,91471.43
2023-03-24T11:50:11.130Z,91469.31
2023-03-24T11:53:04.505Z,91457.98
2023-03-24T11:55:41.859Z,91453.77
2023-03-24T11:58:16.213Z,91458.45
2023-03-24T12:01:05.681Z,91458.40
2023-03-24T12:03:42.844Z,91454.69
2023-03-24T12:06:14.064Z,91450.70
2023-03-24T12:08:56.591Z,91450.09
2023-03-24T12:11:52.543Z,91444.86
2023-03-24T12:14:33.338Z,91442.02
2023-03-24T12:17:15.102Z,91439.79
2023-03-24T12:19:56.012Z,91437.79
2023-03-24T12:22:44.717Z,91437.77
2023-03-24T12:25:50.768Z,91437.92
2023-03-24T12:28:37.609Z,91434.88
2023-03-24T12:31:30.007Z,91435.16
2023-03-24T12:34:17.031Z,91430.41
2023-03-24T12:37:06.205Z,91428.12
2023-03-24T12:39:43.190Z,91423.04
2023-03-24T12:42:21.109Z,91418.09
2023-03-24T12:45:20.572Z,91415.65
2023-03-24T12:48:19.738Z,91416.17
2023-03-24T12:50:54.192Z,91414.52
2023-03-24T12:53:56.140Z,91411.36
2023-03-24T12:56:35.791Z,91413.84
2023-03-24T12:59:16.861Z,91408.64
2023-03-24T13:01:51.722Z,91406.41
2023-03-24T13:04:30.611Z,91402.08
2023-03-24T13:07:06.891Z,91400.83
2023-03-24T13:09:46.077Z,91400.35
2023-03-24T13:12:33.118Z,91397.30
2023-03-24T13:15:13.817Z,91395.30
2023-03-24T13:17:43.290Z,91392.78
2023-03-24T13:20:17.307Z,91386.69
2023-03-24T13:22:45.512Z,91383.34
2023-03-24T13:25:42.313Z,91383.17
2023-03-24T13:28:18.740Z,91382.84
2023-03-24T13:30:47.798Z,91376.98
2023-03-24T13:33:20.992Z,91377.33
2023-03-24T13:36:17.395Z,91379.05
2023-03-24T13:38:53.184Z,91374.98
2023-03-24T13:41:26.944Z,91373.16
2023-03-24T13:44:06.347Z,91367.78
2023-03-24T13:46:41.191Z,91361.45
2023-03-24T13:49:14.611Z,91361.17
2023-03-24T13:51:46.595Z,91358.20
2023-03-24T13:54:20.633Z,91356.48
2023-03-24T13:57:00.734Z,91353.05
2023-03-24T13:59:47.389Z,91350.28
2023-03-24T14:02:22.148Z,91346.00
2023-03-24T14:05:03.020Z,91348.03
2023-03-24T14:07:43.275Z,91343.70
2023-03-24T14:10:14.233Z,91341.55
2023-03-24T14:12:58.456Z,91337.64
2023-03-24T14:15:45.952Z,91337.84
2023-03-24T14:18:40.005Z,91338.25
2023-03-24T14:21:09.627Z,91338.30
2023-03-24T14:23:53.418Z,91329.10
2023-03-24T14:26:21.531Z,91331.99
2023-03-24T14:28:55.080Z,91329.05
2023-03-24T14:31:30.901Z,91326.06
2023-03-24T14:34:05.903Z,91329.21
2023-03-24T14:36:45.263Z,91327.45
2023-03-24T14:39:47.277Z,91321.84
2023-03-24T14:42:34.220Z,91319.59
2023-03-24T14:45:26.487Z,91317.55
2023-03-24T14:48:00.300Z,91318.10
2023-03-24T14:50:29.463Z,91316.21
2023-03-24T14:53:12.805Z,91312.66
2023-03-24T14:55:41.137Z,91310.37
2023-03-24T14:58:36.113Z,91308.88
2023-03-24T15:01:08.009Z,91307.48
2023-03-24T15:04:09.149Z,91307.73
2023-03-24T15:06:46.980Z,91308.30
2023-03-24T15:09:17.445Z,91306.61
2023-03-24T15:11:47.951Z,91305.16
2023-03-24T15:14:23.788Z,91304.03
2023-03-24T15:16:58.761Z,91303.70
2023-03-24T15:19:29.612Z,91306.33
2023-03-24T15:22:00.024Z,91301.56
2023-03-24T15:24:37.457Z,91299.77
2023-03-24T15:27:06.988Z,91301.71
2023-03-24T15:29:40.849Z,91304.81
2023-03-24T15:32:20.852Z,91300.51
2023-03-24T15:34:53.406Z,91303.33
2023-03-24T15:37:23.507Z,91304.61
2023-03-24T15:40:01.796Z,91306.70
2023-03-24T15:42:41.628Z,91307.17
2023-03-24T15:45:30.274Z,91305.09
2023-03-24T15:48:23.590Z,91306.33
2023-03-24T15:51:03.477Z,91310.08
2023-03-24T15:53:44.500Z,91311.61
2023-03-24T15:56:18.111Z,91310.88
2023-03-24T15:58:53.686Z,91311.29
2023-03-24T16:01:36.187Z,91308.95
2023-03-24T16:04:16.943Z,91310.18
2023-03-24T16:06:54.207Z,91311.84
2023-03-24T16:09:27.233Z,91308.45
2023-03-24T16:11:55.763Z,91308.30
2023-03-24T16:14:26.927Z,91308.14
2023-03-24T16:16:57.353Z,91307.27
2023-03-24T16:19:26.557Z,91307.88
2023-03-24T16:21:55.467Z,91306.23
2023-03-24T16:24:23.880Z,91307.45
2023-03-24T16:26:52.160Z,91305.41
2023-03-24T16:29:24.892Z,91307.27
2023-03-24T16:31:53.782Z,91306.71
2023-03-24T16:34:23.099Z,91309.41
2023-03-24T16:36:53.585Z,91310.73
2023-03-24T16:39:29.365Z,91309.23
2023-03-24T16:41:57.887Z,91307.67
2023-03-24T16:44:26.773Z,91306.96
2023-03-24T16:46:55.987Z,91306.77
2023-03-24T16:49:24.943Z,91304.35
2023-03-24T16:51:53.949Z,91308.52
2023-03-24T16:54:22.394Z,91306.73
2023-03-24T16:56:50.673Z,91302.13
2023-03-24T16:59:19.919Z,91302.20
2023-03-24T17:01:48.225Z,91302.55
2023-03-24T17:04:22.535Z,91297.15
2023-03-24T17:06:55.919Z,91295.13
2023-03-24T17:09:24.369Z,91296.89
2023-03-24T17:11:56.068Z,91296.27
2023-03-24T17:14:24.541Z,91293.65
2023-03-24T17:16:53.863Z,91295.27
2023-03-24T17:19:24.683Z,91293.33
2023-03-24T17:22:04.702Z,91289.28
2023-03-24T17:24:36.049Z,91298.52
2023-03-24T17:27:11.201Z,91299.02
2023-03-24T17:29:39.370Z,91298.30
2023-03-24T17:32:08.416Z,91302.60
2023-03-24T17:34:38.010Z,91305.56
2023-03-24T17:37:06.552Z,91307.35
2023-03-24T17:39:34.861Z,91307.35
2023-03-24T17:42:03.088Z,91311.29
2023-03-24T17:44:33.874Z,91308.85
2023-03-24T17:47:02.222Z,91306.78
2023-03-24T17:49:30.440Z,91302.90
2023-03-24T17:51:58.545Z,91303.38
2023-03-24T17:54:33.437Z,91303.90
2023-03-24T17:57:01.688Z,91304.41
2023-03-24T17:59:29.974Z,91301.42
2023-03-24T18:01:58.391Z,91308.52
2023-03-24T18:04:26.636Z,91306.04
2023-03-24T18:06:55.829Z,91307.83
2023-03-24T18:09:24.012Z,91309.20
2023-03-24T18:11:52.249Z,91308.55
2023-03-24T18:14:20.743Z,91307.73
2023-03-24T18:16:49.034Z,91306.64
2023-03-24T18:19:17.485Z,91304.77
2023-03-24T18:21:45.832Z,91304.87
2023-03-24T18:24:14.239Z,91310.09
2023-03-24T18:26:42.803Z,91310.61
2023-03-24T18:29:11.589Z,91308.52
2023-03-24T18:31:39.812Z,91307.12
2023-03-24T18:34:08.106Z,91307.55
2023-03-24T18:36:36.826Z,91311.23
2023-03-24T18:39:07.864Z,91313.95
2023-03-24T18:41:37.403Z,91310.50
2023-03-24T18:44:08.329Z,91301.48
2023-03-24T18:46:37.066Z,91301.52
2023-03-24T18:49:06.363Z,91301.89
2023-03-24T18:51:35.683Z,91306.27
2023-03-24T18:54:04.423Z,91302.71
2023-03-24T18:56:32.798Z,91303.95
2023-03-24T18:59:01.019Z,91303.36
2023-03-24T19:01:30.499Z,91302.90
2023-03-24T19:03:58.919Z,91300.80
2023-03-24T19:06:31.375Z,91301.73
2023-03-24T19:08:59.933Z,91298.88
2023-03-24T19:11:28.155Z,91292.90
2023-03-24T19:13:57.070Z,91288.55
2023-03-24T19:16:26.470Z,91285.05
2023-03-24T19:18:57.978Z,91288.43
2023-03-24T19:21:27.670Z,91287.81
2023-03-24T19:23:57.226Z,91289.16
2023-03-24T19:26:26.052Z,91287.98
2023-03-24T19:28:54.357Z,91284.97
2023-03-24T19:31:22.725Z,91281.84
2023-03-24T19:33:52.416Z,91279.83
2023-03-24T19:36:20.678Z,91283.13
2023-03-24T19:38:48.857Z,91285.17
2023-03-24T19:41:17.349Z,91285.19
2023-03-24T19:43:45.635Z,91280.31
2023-03-24T19:46:13.968Z,91279.93
2023-03-24T19:48:44.412Z,91280.04
2023-03-24T19:51:12.663Z,91283.95
2023-03-24T19:53:41.093Z,91282.85
2023-03-24T19:56:09.372Z,91282.42
2023-03-24T19:58:37.626Z,91279.39
2023-03-24T20:01:05.784Z,91275.80
2023-03-24T20:03:36.650Z,91277.10
2023-03-24T20:06:09.215Z,91276.92
2023-03-24T20:08:38.858Z,91273.59
2023-03-24T20:11:09.699Z,91275.23
2023-03-24T20:13:38.066Z,91279.60
2023-03-24T20:16:06.659Z,91272.86
2023-03-24T20:18:35.938Z,91274.95
2023-03-24T20:21:06.485Z,91272.11
2023-03-24T20:23:34.794Z,91271.94
2023-03-24T20:26:03.093Z,91276.86
2023-03-24T20:28:31.493Z,91275.97
2023-03-24T20:31:01.857Z,91277.30
2023-03-24T20:33:30.991Z,91276.21
2023-03-24T20:35:59.740Z,91282.35
2023-03-24T20:38:28.194Z,91281.83
2023-03-24T20:40:59.813Z,91281.39
2023-03-24T20:43:29.726Z,91285.81
2023-03-24T20:45:58.399Z,91285.80
2023-03-24T20:48:26.746Z,91281.62
2023-03-24T20:50:54.999Z,91285.00
2023-03-24T20:53:25.018Z,91279.60
2023-03-24T20:56:01.148Z,91281.39
2023-03-24T20:58:30.873Z,91279.09
2023-03-24T21:00:59.287Z,91277.69
2023-03-24T21:03:27.556Z,91270.53
2023-03-24T21:05:55.938Z,91267.56
2023-03-24T21:08:24.205Z,91262.79
2023-03-24T21:10:57.105Z,91259.02
2023-03-24T21:13:34.799Z,91256.98
2023-03-24T21:16:08.715Z,91260.67
2023-03-24T21:18:38.400Z,91256.38
2023-03-24T21:21:06.647Z,91257.98
2023-03-24T21:23:39.328Z,91258.20
2023-03-24T21:26:12.518Z,91250.95
2023-03-24T21:28:41.401Z,91251.98
2023-03-24T21:31:20.074Z,91254.30
2023-03-24T21:33:48.813Z,91249.17
2023-03-24T21:36:17.688Z,91251.66
2023-03-24T21:38:49.797Z,91250.46
2023-03-24T21:41:19.770Z,91251.27
2023-03-24T21:43:51.367Z,91248.34
2023-03-24T21:46:21.716Z,91250.95
2023-03-24T21:48:52.122Z,91250.11
2023-03-24T21:51:25.480Z,91254.27
2023-03-24T21:53:59.454Z,91257.80
2023-03-24T21:56:27.749Z,91255.48
2023-03-24T21:58:56.052Z,91253.75
2023-03-24T22:01:24.703Z,91250.84
2023-03-24T22:03:54.524Z,91249.64
2023-03-24T22:06:23.266Z,91247.09
2023-03-24T22:08:53.297Z,91243.52
2023-03-24T22:11:21.584Z,91237.13
2023-03-24T22:13:49.879Z,91236.20
2023-03-24T22:16:18.170Z,91235.55
2023-03-24T22:18:47.504Z,91236.25
2023-03-24T22:21:15.804Z,91236.84
2023-03-24T22:23:44.781Z,91235.27
2023-03-24T22:26:17.040Z,91231.20
2023-03-24T22:28:45.413Z,91229.09
2023-03-24T22:31:16.882Z,91223.02
2023-03-24T22:33:47.653Z,91220.17
2023-03-24T22:36:16.361Z,91222.95
2023-03-24T22:38:44.624Z,91223.93
2023-03-24T22:41:13.292Z,91218.88
2023-03-24T22:43:42.016Z,91215.11
2023-03-24T22:46:11.180Z,91219.65
2023-03-24T22:48:39.988Z,91214.15
2023-03-24T22:51:09.632Z,91214.09
2023-03-24T22:53:37.911Z,91213.72
2023-03-24T22:56:07.287Z,91209.29
2023-03-24T22:58:35.996Z,91206.96
2023-03-24T23:01:06.290Z,91210.95
2023-03-24T23:03:35.753Z,91212.48
2023-03-24T23:06:04.252Z,91218.03
2023-03-24T23:08:33.692Z,91212.22
2023-03-24T23:11:02.395Z,91208.60
2023-03-24T23:13:30.951Z,91214.48
2023-03-24T23:15:59.215Z,91210.69
2023-03-24T23:18:28.469Z,91212.77
2023-03-24T23:21:09.430Z,91216.07
2023-03-24T23:23:39.351Z,91214.83
2023-03-24T23:26:25.075Z,91215.17
2023-03-24T23:28:54.837Z,91212.08
2023-03-24T23:31:26.514Z,91212.13
2023-03-24T23:33:57.738Z,91210.03
2023-03-24T23:36:29.067Z,91208.11
2023-03-24T23:38:57.254Z,91208.86
2023-03-24T23:41:26.104Z,91209.06
2023-03-24T23:43:55.267Z,91206.92
2023-03-24T23:46:24.610Z,91207.81
2023-03-24T23:48:53.448Z,91203.51
2023-03-24T23:51:22.264Z,91206.90
2023-03-24T23:53:51.009Z,91202.45
2023-03-24T23:56:21.849Z,91206.27
2023-03-24T23:58:50.242Z,91204.70
